Terminal Aerodrome Forecast
Issued by NWS

Home | Current Version | Previous Version | Text Only | Print | Product List | Glossary On
Versions: 1 2 3 4 5 6 7 8 9 10 11 12 13 14 15 16 17 18 19 20 21 22 23 24 25 26
199
FTUS41 KBUF 102102 AAA
TAFIAG
TAF AMD
KIAG 102102Z 1021/1118 26015G25KT 4SM -SN OVC015
      TEMPO 1022/1024 2SM -SN
     FM110200 28014KT 5SM -SN OVC025
     FM110900 29013KT P6SM VCSH BKN025
     FM111500 30015KT P6SM VCSH BKN025=

USA.gov is the U.S. government's official web portal to all federal, state and local government web resources and services.